KTCS/TCS METAR and TAF weather

Enter ICAO airport designator
Station Type Date Time Source
KTCS METAR 2020/01/18 23:53 UTC NOAA

KTCS 182353Z AUTO 14003KT 10SM CLR 12/M09 A3029 RMK AO2 SLP234 T01221094 10133 20078 56005


Station Type Date Time Source
KTCS Decoded METAR 2020/01/18 23:53 UTC NOAA

TRUTH OR CONSEQUENCES MUNI, NM, United States (KTCS) 33-14N 107-16W 1469M
Jan 18, 2020 - 06:53 PM EST / 2020.01.18 2353 UTC
Wind: from the SE (140 degrees) at 3 MPH (3 KT):0
Visibility: 10 mile(s):0
Sky conditions: clear
Temperature: 54.0 F (12.2 C)
Dew Point: 15.1 F (-9.4 C)
Relative Humidity: 21%
Pressure (altimeter): 30.29 in. Hg (1025 hPa)
Pressure tendency: 0.01 inches (0.5 hPa) lower than three hours ago
ob: KTCS 182353Z AUTO 14003KT 10SM CLR 12/M09 A3029 RMK AO2 SLP234 T01221094 10133 20078 56005
cycle: 0

Station Type Date Time Source
KTCS TAF 2020/01/18 18:33 UTC NOAA

TAF KTCS 181730Z 1818/1918 08007KT P6SM SKC
FM190300 35005KT P6SM SCT250

Example: see airport list